createdAt,value
2018-03-01T00:00:47.066Z,98258.63
2018-03-01T00:03:14.491Z,98259.06
2018-03-01T00:05:41.902Z,98259.45
2018-03-01T00:08:09.326Z,98259.57
2018-03-01T00:10:36.740Z,98252.32
2018-03-01T00:13:04.199Z,98254.33
2018-03-01T00:15:31.602Z,98255.70
2018-03-01T00:17:59.017Z,98261.27
2018-03-01T00:20:26.416Z,98256.66
2018-03-01T00:22:53.848Z,98252.74
2018-03-01T00:25:21.269Z,98241.20
2018-03-01T00:27:48.685Z,98256.20
2018-03-01T00:30:16.112Z,98253.56
2018-03-01T00:32:44.274Z,98244.27
2018-03-01T00:35:12.476Z,98242.14
2018-03-01T00:37:39.896Z,98243.96
2018-03-01T00:40:07.306Z,98254.61
2018-03-01T00:42:34.731Z,98249.50
2018-03-01T00:45:02.188Z,98252.09
2018-03-01T00:47:29.826Z,98244.04
2018-03-01T00:49:57.258Z,98239.13
2018-03-01T00:52:24.667Z,98234.99
2018-03-01T00:54:52.096Z,98229.15
2018-03-01T00:57:19.505Z,98226.28
2018-03-01T00:59:46.920Z,98224.11
2018-03-01T01:02:14.328Z,98212.77
2018-03-01T01:04:41.767Z,98211.92
2018-03-01T01:07:09.177Z,98214.90
2018-03-01T01:09:37.544Z,98203.48
2018-03-01T01:12:04.951Z,98205.30
2018-03-01T01:14:32.368Z,98210.95
2018-03-01T01:16:59.771Z,98197.72
2018-03-01T01:19:27.190Z,98193.19
2018-03-01T01:21:54.599Z,98196.16
2018-03-01T01:24:22.303Z,98189.86
2018-03-01T01:26:49.731Z,98186.45
2018-03-01T01:29:17.140Z,98183.55
2018-03-01T01:31:44.982Z,98177.63
2018-03-01T01:34:12.416Z,98179.80
2018-03-01T01:36:39.837Z,98169.58
2018-03-01T01:39:07.253Z,98171.36
2018-03-01T01:41:34.712Z,98159.98
2018-03-01T01:44:02.126Z,98161.72
2018-03-01T01:46:29.541Z,98162.11
2018-03-01T01:48:56.961Z,98154.02
2018-03-01T01:51:24.381Z,98158.00
2018-03-01T01:53:51.793Z,98143.03
2018-03-01T01:56:19.208Z,98145.34
2018-03-01T01:58:46.622Z,98139.43
2018-03-01T02:01:14.058Z,98138.16
2018-03-01T02:03:41.461Z,98127.17
2018-03-01T02:06:09.678Z,98133.20
2018-03-01T02:08:37.094Z,98121.36
2018-03-01T02:11:04.625Z,98116.68
2018-03-01T02:13:32.031Z,98113.74
2018-03-01T02:15:59.445Z,98097.58
2018-03-01T02:18:26.853Z,98094.56
2018-03-01T02:20:54.278Z,98085.13
2018-03-01T02:23:21.691Z,98082.63
2018-03-01T02:25:49.100Z,98076.66
2018-03-01T02:28:16.508Z,98067.34
2018-03-01T02:30:43.936Z,98059.96
2018-03-01T02:33:11.348Z,98059.11
2018-03-01T02:35:38.769Z,98053.54
2018-03-01T02:38:06.178Z,98061.20
2018-03-01T02:40:33.596Z,98056.91
2018-03-01T02:43:01.023Z,98058.30
2018-03-01T02:45:28.437Z,98059.66
2018-03-01T02:47:55.847Z,98052.46
2018-03-01T02:50:23.269Z,98046.12
2018-03-01T02:52:50.688Z,98032.94
2018-03-01T02:55:19.000Z,98032.94
2018-03-01T02:57:46.417Z,98032.55
2018-03-01T03:00:13.836Z,98040.16
2018-03-01T03:02:42.027Z,98049.52
2018-03-01T03:05:09.438Z,98038.08
2018-03-01T03:07:36.860Z,98029.11
2018-03-01T03:10:04.325Z,98029.11
2018-03-01T03:12:31.754Z,98029.45
2018-03-01T03:14:59.156Z,98035.06
2018-03-01T03:17:26.586Z,98042.29
2018-03-01T03:19:53.996Z,98045.23
2018-03-01T03:22:21.430Z,98033.36
2018-03-01T03:24:48.838Z,98028.64
2018-03-01T03:27:16.256Z,98023.46
2018-03-01T03:29:43.669Z,98022.64
2018-03-01T03:32:11.089Z,98021.80
2018-03-01T03:34:38.493Z,98029.30
2018-03-01T03:37:05.908Z,98018.73
2018-03-01T03:39:33.327Z,98014.06
2018-03-01T03:42:00.754Z,98021.76
2018-03-01T03:44:28.163Z,98018.73
2018-03-01T03:46:55.584Z,98013.52
2018-03-01T03:49:22.997Z,98007.52
2018-03-01T03:51:50.418Z,98013.09
2018-03-01T03:54:17.825Z,98001.98
2018-03-01T03:56:45.244Z,97997.00
2018-03-01T03:59:12.657Z,97991.35
2018-03-01T04:01:40.087Z,97993.95
2018-03-01T04:04:07.495Z,97990.50
2018-03-01T04:06:34.917Z,97992.59
2018-03-01T04:09:02.341Z,97984.55
2018-03-01T04:11:29.749Z,97985.78
2018-03-01T04:13:57.177Z,97984.16
2018-03-01T04:16:24.937Z,97986.63
2018-03-01T04:18:52.354Z,97977.27
2018-03-01T04:21:19.775Z,97983.66
2018-03-01T04:23:47.189Z,97971.57
2018-03-01T04:26:14.613Z,97971.19
2018-03-01T04:28:42.021Z,97975.87
2018-03-01T04:31:09.440Z,97973.27
2018-03-01T04:33:36.858Z,97962.12
2018-03-01T04:36:04.276Z,97955.27
2018-03-01T04:38:31.697Z,97961.61
2018-03-01T04:40:59.108Z,97959.95
2018-03-01T04:43:26.531Z,97959.86
2018-03-01T04:45:53.968Z,97970.08
2018-03-01T04:48:21.397Z,97970.84
2018-03-01T04:50:48.828Z,97971.69
2018-03-01T04:53:17.213Z,97970.80
2018-03-01T04:55:44.630Z,97975.77
2018-03-01T04:58:12.052Z,97968.20
2018-03-01T05:00:39.465Z,97975.01
2018-03-01T05:03:06.892Z,97969.38
2018-03-01T05:05:34.307Z,97969.30
2018-03-01T05:08:01.735Z,97973.22
2018-03-01T05:10:29.144Z,97960.73
2018-03-01T05:12:56.577Z,97955.97
2018-03-01T05:15:23.985Z,97956.39
2018-03-01T05:17:51.401Z,97949.45
2018-03-01T05:20:18.828Z,97949.53
2018-03-01T05:22:46.230Z,97946.94
2018-03-01T05:25:13.649Z,97945.61
2018-03-01T05:27:41.573Z,97943.53
2018-03-01T05:30:09.002Z,97939.60
2018-03-01T05:32:36.419Z,97935.86
2018-03-01T05:35:03.826Z,97937.33
2018-03-01T05:37:31.247Z,97932.33
2018-03-01T05:39:58.660Z,97931.75
2018-03-01T05:42:26.081Z,97924.03
2018-03-01T05:44:53.520Z,97925.33
2018-03-01T05:47:20.925Z,97919.35
2018-03-01T05:49:48.346Z,97925.59
2018-03-01T05:52:15.752Z,97923.09
2018-03-01T05:54:43.182Z,97915.09
2018-03-01T05:57:10.593Z,97900.52
2018-03-01T05:59:38.022Z,97909.48
2018-03-01T06:02:05.441Z,97909.70
2018-03-01T06:04:32.875Z,97908.42
2018-03-01T06:07:00.297Z,97909.92
2018-03-01T06:09:27.735Z,97907.33
2018-03-01T06:11:55.131Z,97903.59
2018-03-01T06:14:22.550Z,97902.64
2018-03-01T06:16:49.957Z,97902.55
2018-03-01T06:19:17.377Z,97895.24
2018-03-01T06:21:44.795Z,97900.73
2018-03-01T06:24:12.208Z,97892.44
2018-03-01T06:26:39.631Z,97886.84
2018-03-01T06:29:07.043Z,97892.11
2018-03-01T06:31:34.497Z,97898.97
2018-03-01T06:34:01.910Z,97890.45
2018-03-01T06:36:29.321Z,97892.28
2018-03-01T06:38:56.765Z,97882.31
2018-03-01T06:41:24.184Z,97880.67
2018-03-01T06:43:52.589Z,97878.17
2018-03-01T06:46:20.013Z,97887.91
2018-03-01T06:48:47.427Z,97889.36
2018-03-01T06:51:14.853Z,97886.20
2018-03-01T06:53:42.272Z,97891.42
2018-03-01T06:56:09.689Z,97883.56
2018-03-01T06:58:37.103Z,97881.26
2018-03-01T07:01:04.552Z,97887.06
2018-03-01T07:03:31.966Z,97886.54
2018-03-01T07:05:59.385Z,97872.37
2018-03-01T07:08:26.792Z,97884.20
2018-03-01T07:10:54.220Z,97873.19
2018-03-01T07:13:21.630Z,97877.27
2018-03-01T07:15:49.083Z,97869.80
2018-03-01T07:18:16.493Z,97859.94
2018-03-01T07:20:43.901Z,97859.29
2018-03-01T07:23:11.304Z,97852.34
2018-03-01T07:25:38.721Z,97853.80
2018-03-01T07:28:06.130Z,97854.17
2018-03-01T07:30:33.557Z,97853.19
2018-03-01T07:33:01.035Z,97861.25
2018-03-01T07:35:28.398Z,97852.80
2018-03-01T07:37:55.812Z,97854.34
2018-03-01T07:40:23.822Z,97851.05
2018-03-01T07:42:51.242Z,97849.91
2018-03-01T07:45:18.661Z,97850.09
2018-03-01T07:47:46.069Z,97843.75
2018-03-01T07:50:13.496Z,97842.49
2018-03-01T07:52:40.918Z,97841.53
2018-03-01T07:55:08.330Z,97841.27
2018-03-01T07:57:35.748Z,97838.16
2018-03-01T08:00:03.165Z,97843.09
2018-03-01T08:02:30.573Z,97850.42
2018-03-01T08:04:57.977Z,97831.14
2018-03-01T08:07:25.396Z,97834.17
2018-03-01T08:09:52.807Z,97831.30
2018-03-01T08:12:20.221Z,97827.36
2018-03-01T08:14:47.641Z,97839.30
2018-03-01T08:17:15.057Z,97826.48
2018-03-01T08:19:42.465Z,97826.44
2018-03-01T08:22:09.895Z,97823.49
2018-03-01T08:24:37.296Z,97821.19
2018-03-01T08:27:04.720Z,97819.23
2018-03-01T08:29:32.137Z,97824.55
2018-03-01T08:31:59.564Z,97820.28
2018-03-01T08:34:26.962Z,97819.02
2018-03-01T08:36:55.144Z,97820.13
2018-03-01T08:39:22.562Z,97809.42
2018-03-01T08:41:49.982Z,97810.98
2018-03-01T08:44:17.392Z,97808.86
2018-03-01T08:46:44.829Z,97797.27
2018-03-01T08:49:12.237Z,97799.62
2018-03-01T08:51:39.664Z,97812.28
2018-03-01T08:54:07.078Z,97796.73
2018-03-01T08:56:34.506Z,97805.33
2018-03-01T08:59:01.918Z,97806.30
2018-03-01T09:01:29.371Z,97809.48
2018-03-01T09:03:56.761Z,97802.88
2018-03-01T09:06:24.185Z,97809.92
2018-03-01T09:08:51.602Z,97802.98
2018-03-01T09:11:19.012Z,97806.15
2018-03-01T09:13:46.434Z,97797.47
2018-03-01T09:16:13.849Z,97799.95
2018-03-01T09:18:41.269Z,97802.88
2018-03-01T09:21:08.677Z,97797.27
2018-03-01T09:23:36.104Z,97808.61
2018-03-01T09:26:03.520Z,97794.90
2018-03-01T09:28:30.941Z,97788.94
2018-03-01T09:30:58.356Z,97784.91
2018-03-01T09:33:26.574Z,97783.80
2018-03-01T09:35:53.987Z,97784.50
2018-03-01T09:38:21.405Z,97787.07
2018-03-01T09:40:49.473Z,97788.16
2018-03-01T09:43:16.897Z,97779.30
2018-03-01T09:45:44.299Z,97766.38
2018-03-01T09:48:11.721Z,97771.02
2018-03-01T09:50:39.134Z,97766.48
2018-03-01T09:53:06.558Z,97764.69
2018-03-01T09:55:33.969Z,97755.41
2018-03-01T09:58:01.405Z,97760.95
2018-03-01T10:00:28.800Z,97755.63
2018-03-01T10:02:56.217Z,97740.98
2018-03-01T10:05:23.625Z,97745.55
2018-03-01T10:07:51.050Z,97738.89
2018-03-01T10:10:18.461Z,97738.98
2018-03-01T10:12:45.867Z,97740.98
2018-03-01T10:15:13.288Z,97739.00
2018-03-01T10:17:40.693Z,97738.95
2018-03-01T10:20:08.110Z,97733.16
2018-03-01T10:22:35.532Z,97733.59
2018-03-01T10:25:02.950Z,97727.50
2018-03-01T10:27:30.370Z,97727.98
2018-03-01T10:29:58.014Z,97737.59
2018-03-01T10:32:25.424Z,97730.95
2018-03-01T10:34:52.845Z,97724.34
2018-03-01T10:37:20.253Z,97725.94
2018-03-01T10:39:47.687Z,97722.52
2018-03-01T10:42:15.097Z,97742.50
2018-03-01T10:44:42.525Z,97727.64
2018-03-01T10:47:09.933Z,97723.77
2018-03-01T10:49:37.356Z,97712.38
2018-03-01T10:52:04.766Z,97705.70
2018-03-01T10:54:32.189Z,97701.31
2018-03-01T10:56:59.601Z,97695.38
2018-03-01T10:59:27.067Z,97685.84
2018-03-01T11:01:54.437Z,97681.18
2018-03-01T11:04:21.861Z,97677.26
2018-03-01T11:06:49.270Z,97681.31
2018-03-01T11:09:16.685Z,97678.59
2018-03-01T11:11:44.097Z,97677.88
2018-03-01T11:14:11.540Z,97665.62
2018-03-01T11:16:38.940Z,97654.03
2018-03-01T11:19:06.354Z,97648.88
2018-03-01T11:21:33.777Z,97662.12
2018-03-01T11:24:01.203Z,97655.31
2018-03-01T11:26:29.633Z,97636.78
2018-03-01T11:28:57.042Z,97646.84
2018-03-01T11:31:24.465Z,97645.55
2018-03-01T11:33:51.878Z,97639.30
2018-03-01T11:36:19.284Z,97633.38
2018-03-01T11:38:46.695Z,97636.27
2018-03-01T11:41:14.119Z,97625.86
2018-03-01T11:43:41.527Z,97612.38
2018-03-01T11:46:08.937Z,97619.38
2018-03-01T11:48:36.356Z,97604.87
2018-03-01T11:51:03.762Z,97610.64
2018-03-01T11:53:31.178Z,97613.70
2018-03-01T11:55:58.603Z,97604.11
2018-03-01T11:58:26.026Z,97601.41
2018-03-01T12:00:53.444Z,97601.81
2018-03-01T12:03:20.853Z,97589.86
2018-03-01T12:05:48.285Z,97581.95
2018-03-01T12:08:15.699Z,97579.86
2018-03-01T12:10:43.109Z,97572.44
2018-03-01T12:13:10.517Z,97572.89
2018-03-01T12:15:37.938Z,97562.12
2018-03-01T12:18:05.353Z,97569.27
2018-03-01T12:20:32.777Z,97566.16
2018-03-01T12:23:00.186Z,97555.69
2018-03-01T12:25:27.611Z,97554.95
2018-03-01T12:27:55.030Z,97550.64
2018-03-01T12:30:22.452Z,97548.93
2018-03-01T12:32:49.881Z,97544.73
2018-03-01T12:35:17.280Z,97538.77
2018-03-01T12:37:44.707Z,97534.70
2018-03-01T12:40:12.116Z,97538.45
2018-03-01T12:42:39.531Z,97529.84
2018-03-01T12:45:06.928Z,97530.83
2018-03-01T12:47:34.352Z,97529.21
2018-03-01T12:50:02.270Z,97516.33
2018-03-01T12:52:29.676Z,97515.27
2018-03-01T12:54:57.104Z,97513.36
2018-03-01T12:57:24.518Z,97514.58
2018-03-01T12:59:51.945Z,97503.40
2018-03-01T13:02:19.375Z,97502.61
2018-03-01T13:04:46.775Z,97503.34
2018-03-01T13:07:14.201Z,97504.14
2018-03-01T13:09:41.621Z,97512.21
2018-03-01T13:12:09.313Z,97504.80
2018-03-01T13:14:36.714Z,97499.86
2018-03-01T13:17:04.134Z,97502.73
2018-03-01T13:19:31.537Z,97496.58
2018-03-01T13:21:58.977Z,97491.78
2018-03-01T13:24:26.389Z,97489.50
2018-03-01T13:26:53.809Z,97492.97
2018-03-01T13:29:21.218Z,97495.84
2018-03-01T13:31:48.953Z,97495.77
2018-03-01T13:34:16.370Z,97485.00
2018-03-01T13:36:43.782Z,97483.09
2018-03-01T13:39:11.201Z,97491.17
2018-03-01T13:41:39.543Z,97485.65
2018-03-01T13:44:06.958Z,97488.45
2018-03-01T13:46:35.382Z,97478.31
2018-03-01T13:49:02.792Z,97477.28
2018-03-01T13:51:30.206Z,97476.80
2018-03-01T13:53:57.620Z,97467.72
2018-03-01T13:56:25.029Z,97471.92
2018-03-01T13:58:52.453Z,97476.87
2018-03-01T14:01:19.866Z,97467.74
2018-03-01T14:03:47.282Z,97468.41
2018-03-01T14:06:14.686Z,97465.03
2018-03-01T14:08:42.106Z,97462.93
2018-03-01T14:11:09.523Z,97465.88
2018-03-01T14:13:36.929Z,97458.91
2018-03-01T14:16:05.130Z,97446.84
2018-03-01T14:18:37.386Z,97448.23
2018-03-01T14:21:08.269Z,97449.21
2018-03-01T14:23:43.036Z,97457.72
2018-03-01T14:26:11.738Z,97450.15
2018-03-01T14:28:41.082Z,97453.72
2018-03-01T14:31:08.485Z,97450.73
2018-03-01T14:33:35.904Z,97443.83
2018-03-01T14:36:03.308Z,97440.09
2018-03-01T14:38:30.750Z,97447.00
2018-03-01T14:40:58.165Z,97450.80
2018-03-01T14:43:25.594Z,97439.14
2018-03-01T14:45:53.005Z,97430.26
2018-03-01T14:48:20.434Z,97436.50
2018-03-01T14:50:47.843Z,97434.75
2018-03-01T14:53:15.253Z,97430.48
2018-03-01T14:55:42.679Z,97424.67
2018-03-01T14:58:10.083Z,97421.73
2018-03-01T15:00:37.505Z,97419.91
2018-03-01T15:03:04.958Z,97414.17
2018-03-01T15:05:32.374Z,97411.16
2018-03-01T15:07:59.793Z,97408.39
2018-03-01T15:10:27.228Z,97404.00
2018-03-01T15:12:54.625Z,97394.19
2018-03-01T15:15:22.048Z,97402.27
2018-03-01T15:17:49.463Z,97388.58
2018-03-01T15:20:16.886Z,97390.44
2018-03-01T15:22:44.293Z,97398.74
2018-03-01T15:25:11.717Z,97395.28
2018-03-01T15:27:39.130Z,97387.79
2018-03-01T15:30:06.548Z,97382.02
2018-03-01T15:32:33.958Z,97401.72
2018-03-01T15:35:01.382Z,97387.69
2018-03-01T15:37:28.798Z,97396.69
2018-03-01T15:39:56.218Z,97394.04
2018-03-01T15:42:23.631Z,97393.11
2018-03-01T15:44:51.054Z,97397.46
2018-03-01T15:47:18.463Z,97394.75
2018-03-01T15:49:45.881Z,97394.53
2018-03-01T15:52:13.306Z,97394.77
2018-03-01T15:54:40.740Z,97385.05
2018-03-01T15:57:08.877Z,97388.18
2018-03-01T15:59:36.286Z,97384.95
2018-03-01T16:02:03.700Z,97392.23
2018-03-01T16:04:31.112Z,97385.18
2018-03-01T16:06:58.529Z,97386.39
2018-03-01T16:09:25.948Z,97386.73
2018-03-01T16:11:53.365Z,97382.33
2018-03-01T16:14:20.780Z,97379.32
2018-03-01T16:16:48.203Z,97390.92
2018-03-01T16:19:15.617Z,97382.34
2018-03-01T16:21:43.041Z,97390.77
2018-03-01T16:24:10.446Z,97386.08
2018-03-01T16:26:37.872Z,97379.00
2018-03-01T16:29:05.296Z,97381.98
2018-03-01T16:31:32.726Z,97383.30
2018-03-01T16:34:00.130Z,97382.25
2018-03-01T16:36:27.547Z,97381.70
2018-03-01T16:38:54.957Z,97375.16
2018-03-01T16:41:22.373Z,97380.48
2018-03-01T16:43:49.787Z,97379.58
2018-03-01T16:46:17.200Z,97381.73
2018-03-01T16:48:44.604Z,97379.70
2018-03-01T16:51:12.025Z,97376.28
2018-03-01T16:53:39.483Z,97374.09
2018-03-01T16:56:07.107Z,97380.81
2018-03-01T16:58:34.533Z,97373.16
2018-03-01T17:01:01.961Z,97380.91
2018-03-01T17:03:29.381Z,97368.03
2018-03-01T17:05:57.744Z,97372.20
2018-03-01T17:08:25.170Z,97384.89
2018-03-01T17:10:52.590Z,97393.69
2018-03-01T17:13:20.001Z,97392.08
2018-03-01T17:15:47.412Z,97391.34
2018-03-01T17:18:14.820Z,97396.28
2018-03-01T17:20:42.572Z,97392.80
2018-03-01T17:23:09.989Z,97392.95
2018-03-01T17:25:37.405Z,97389.70
2018-03-01T17:28:05.010Z,97403.00
2018-03-01T17:30:32.401Z,97406.77
2018-03-01T17:32:59.825Z,97402.19
2018-03-01T17:35:27.237Z,97391.80
2018-03-01T17:37:54.670Z,97403.70
2018-03-01T17:40:22.072Z,97398.61
2018-03-01T17:42:49.831Z,97401.13
2018-03-01T17:45:17.226Z,97396.55
2018-03-01T17:47:44.642Z,97398.70
2018-03-01T17:50:12.050Z,97396.64
2018-03-01T17:52:39.469Z,97393.13
2018-03-01T17:55:06.882Z,97387.24
2018-03-01T17:57:34.368Z,97390.02
2018-03-01T18:00:01.773Z,97391.16
2018-03-01T18:02:29.197Z,97393.25
2018-03-01T18:04:56.597Z,97395.37
2018-03-01T18:07:24.015Z,97399.45
2018-03-01T18:09:51.421Z,97400.77
2018-03-01T18:12:18.841Z,97403.02
2018-03-01T18:14:46.252Z,97407.59
2018-03-01T18:17:13.669Z,97408.32
2018-03-01T18:19:41.104Z,97409.59
2018-03-01T18:22:08.517Z,97408.83
2018-03-01T18:24:35.930Z,97402.76
2018-03-01T18:27:04.157Z,97405.55
2018-03-01T18:29:31.583Z,97399.70
2018-03-01T18:31:58.990Z,97395.94
2018-03-01T18:34:26.413Z,97393.66
2018-03-01T18:36:53.841Z,97394.44
2018-03-01T18:39:21.264Z,97392.81
2018-03-01T18:41:48.674Z,97389.48
2018-03-01T18:44:16.489Z,97389.23
2018-03-01T18:46:43.901Z,97380.82
2018-03-01T18:49:11.598Z,97377.59
2018-03-01T18:51:39.009Z,97369.81
2018-03-01T18:54:06.434Z,97364.91
2018-03-01T18:56:33.846Z,97361.45
2018-03-01T18:59:01.267Z,97362.56
2018-03-01T19:01:28.683Z,97358.54
2018-03-01T19:03:56.106Z,97359.77
2018-03-01T19:06:23.508Z,97353.20
2018-03-01T19:08:50.919Z,97346.11
2018-03-01T19:11:18.346Z,97351.27
2018-03-01T19:13:45.766Z,97344.89
2018-03-01T19:16:13.189Z,97342.98
2018-03-01T19:18:40.593Z,97345.53
2018-03-01T19:21:08.013Z,97336.00
2018-03-01T19:23:35.435Z,97336.87
2018-03-01T19:26:02.861Z,97339.66
2018-03-01T19:28:30.269Z,97340.64
2018-03-01T19:30:57.694Z,97348.17
2018-03-01T19:33:25.097Z,97351.50
2018-03-01T19:35:52.519Z,97347.59
2018-03-01T19:38:19.934Z,97344.28
2018-03-01T19:40:47.350Z,97339.14
2018-03-01T19:43:14.796Z,97339.56
2018-03-01T19:45:42.182Z,97338.06
2018-03-01T19:48:09.594Z,97334.71
2018-03-01T19:50:37.017Z,97334.48
2018-03-01T19:53:04.436Z,97337.70
2018-03-01T19:55:31.855Z,97336.44
2018-03-01T19:57:59.266Z,97328.34
2018-03-01T20:00:26.678Z,97331.61
2018-03-01T20:02:54.085Z,97333.95
2018-03-01T20:05:21.507Z,97330.59
2018-03-01T20:07:48.917Z,97319.38
2018-03-01T20:10:16.338Z,97316.75
2018-03-01T20:12:43.750Z,97315.88
2018-03-01T20:15:11.163Z,97310.44
2018-03-01T20:17:38.589Z,97312.55
2018-03-01T20:20:05.988Z,97302.24
2018-03-01T20:22:33.409Z,97302.67
2018-03-01T20:25:00.824Z,97304.85
2018-03-01T20:27:28.249Z,97303.66
2018-03-01T20:29:55.654Z,97291.53
2018-03-01T20:32:23.063Z,97292.55
2018-03-01T20:34:50.474Z,97289.58
2018-03-01T20:37:17.892Z,97296.95
2018-03-01T20:39:45.301Z,97295.91
2018-03-01T20:42:12.724Z,97303.52
2018-03-01T20:44:40.130Z,97309.08
2018-03-01T20:47:07.550Z,97309.17
2018-03-01T20:49:34.957Z,97303.33
2018-03-01T20:52:02.369Z,97301.17
2018-03-01T20:54:30.552Z,97297.78
2018-03-01T20:56:57.966Z,97291.94
2018-03-01T20:59:25.448Z,97293.14
2018-03-01T21:01:53.915Z,97304.42
2018-03-01T21:04:21.322Z,97302.47
2018-03-01T21:06:48.747Z,97307.73
2018-03-01T21:09:17.342Z,97319.91
2018-03-01T21:11:44.765Z,97310.55
2018-03-01T21:14:12.173Z,97316.27
2018-03-01T21:16:39.613Z,97316.64
2018-03-01T21:19:07.016Z,97311.97
2018-03-01T21:21:34.421Z,97306.27
2018-03-01T21:24:01.848Z,97304.46
2018-03-01T21:26:29.253Z,97309.27
2018-03-01T21:28:56.674Z,97307.67
2018-03-01T21:31:24.761Z,97299.72
2018-03-01T21:33:52.173Z,97299.94
2018-03-01T21:36:19.656Z,97298.81
2018-03-01T21:38:47.081Z,97300.19
2018-03-01T21:41:14.499Z,97292.86
2018-03-01T21:43:41.910Z,97284.53
2018-03-01T21:46:09.325Z,97280.23
2018-03-01T21:48:36.744Z,97272.52
2018-03-01T21:51:04.150Z,97272.63
2018-03-01T21:53:31.580Z,97271.98
2018-03-01T21:55:58.994Z,97273.27
2018-03-01T21:58:26.410Z,97270.53
2018-03-01T22:02:38.805Z,97263.32
2018-03-01T22:05:06.210Z,97264.83
2018-03-01T22:07:33.618Z,97254.83
2018-03-01T22:10:01.026Z,97261.72
2018-03-01T22:12:28.438Z,97249.41
2018-03-01T22:14:55.859Z,97251.55
2018-03-01T22:17:23.257Z,97248.06
2018-03-01T22:19:50.695Z,97246.69
2018-03-01T22:22:18.106Z,97244.59
2018-03-01T22:24:45.525Z,97234.79
2018-03-01T22:27:12.941Z,97239.45
2018-03-01T22:29:40.361Z,97240.31
2018-03-01T22:32:07.772Z,97241.88
2018-03-01T22:34:35.208Z,97230.83
2018-03-01T22:37:02.620Z,97222.08
2018-03-01T22:39:30.042Z,97219.41
2018-03-01T22:41:57.441Z,97215.19
2018-03-01T22:44:25.231Z,97220.16
2018-03-01T22:46:52.641Z,97216.41
2018-03-01T22:49:20.073Z,97213.45
2018-03-01T22:51:47.481Z,97213.36
2018-03-01T22:54:14.903Z,97213.75
2018-03-01T22:56:42.308Z,97213.75
2018-03-01T22:59:09.725Z,97212.30
2018-03-01T23:01:37.137Z,97216.58
2018-03-01T23:04:04.599Z,97213.69
2018-03-01T23:06:32.660Z,97212.49
2018-03-01T23:09:00.081Z,97214.11
2018-03-01T23:11:27.494Z,97205.78
2018-03-01T23:13:55.962Z,97204.94
2018-03-01T23:16:23.366Z,97205.72
2018-03-01T23:18:50.785Z,97206.02
2018-03-01T23:21:18.194Z,97197.77
2018-03-01T23:23:45.610Z,97194.63
2018-03-01T23:26:13.024Z,97188.89
2018-03-01T23:28:40.432Z,97184.20
2018-03-01T23:31:07.855Z,97182.38
2018-03-01T23:33:35.307Z,97189.76
2018-03-01T23:36:02.717Z,97186.50
2018-03-01T23:38:30.430Z,97182.16
2018-03-01T23:40:57.845Z,97179.11
2018-03-01T23:43:25.257Z,97179.86
2018-03-01T23:45:52.683Z,97170.34
2018-03-01T23:48:20.084Z,97165.17
2018-03-01T23:50:47.505Z,97166.24
2018-03-01T23:53:14.923Z,97159.52
2018-03-01T23:55:42.344Z,97158.89
2018-03-01T23:58:09.757Z,97152.02
